Time;durP1;ratioP1;P1;durP2;ratioP2;P2;SDS_P1;SDS_P2;PMS_P1;PMS_P2;Temp;Humidity;BMP_temperature;BMP_pressure;BME280_temperature;BME280_humidity;BME280_pressure;Samples;Min_cycle;Max_cycle;Signal;HPM_P1;HPM_P2
2022/03/18 00:00:23;;;;;;;5.44;2.69;;;;;;;-5.06;75.09;103062.48;460290;112;923011;-67
2022/03/18 00:01:26;;;;;;;4.50;2.86;;;;;;;-5.10;74.85;103067.05;461138;112;922786;-68
2022/03/18 00:02:30;;;;;;;3.10;2.52;;;;;;;-5.14;74.68;103064.56;462176;112;922591;-68
2022/03/18 00:03:33;;;;;;;3.27;2.71;;;;;;;-5.23;74.26;103071.05;464666;112;922576;-68
2022/03/18 00:04:37;;;;;;;3.76;3.24;;;;;;;-5.30;74.28;103063.35;465490;112;930516;-67
2022/03/18 00:05:41;;;;;;;3.16;2.78;;;;;;;-5.36;74.34;103071.53;467619;112;922643;-67
2022/03/18 00:06:45;;;;;;;3.38;3.09;;;;;;;-5.41;74.56;103070.82;463961;112;930531;-68
2022/03/18 00:07:49;;;;;;;3.52;2.92;;;;;;;-5.42;74.61;103069.08;461896;112;930672;-68
2022/03/18 00:08:52;;;;;;;4.52;3.20;;;;;;;-5.46;74.64;103074.48;462506;112;931074;-69
2022/03/18 00:09:55;;;;;;;4.22;3.24;;;;;;;-5.47;74.62;103075.43;458684;112;922521;-68
2022/03/18 00:11:01;;;;;;;3.46;2.88;;;;;;;-5.49;74.77;103073.72;461725;112;931097;-68
2022/03/18 00:12:06;;;;;;;5.04;3.75;;;;;;;-5.52;74.59;103077.37;462254;112;930544;-67
2022/03/18 00:13:10;;;;;;;3.02;2.65;;;;;;;-5.55;74.55;103081.90;460565;112;923188;-67
2022/03/18 00:14:14;;;;;;;3.53;3.09;;;;;;;-5.58;74.45;103076.70;460253;112;922638;-71
2022/03/18 00:15:18;;;;;;;4.59;3.42;;;;;;;-5.61;74.48;103075.00;461216;112;923037;-67
2022/03/18 00:16:22;;;;;;;4.21;2.99;;;;;;;-5.62;74.62;103083.01;459240;112;922604;-67
2022/03/18 00:17:27;;;;;;;3.88;3.37;;;;;;;-5.64;74.62;103077.77;460008;112;922525;-68
2022/03/18 00:18:30;;;;;;;3.61;3.05;;;;;;;-5.65;74.64;103081.34;461500;112;922919;-67
2022/03/18 00:19:34;;;;;;;3.66;3.22;;;;;;;-5.66;74.67;103081.38;463142;112;922496;-65
2022/03/18 00:20:37;;;;;;;3.66;3.36;;;;;;;-5.65;74.69;103083.13;461981;112;922620;-67
2022/03/18 00:21:41;;;;;;;3.67;3.34;;;;;;;-5.66;74.31;103084.03;461065;112;922499;-68
2022/03/18 00:22:46;;;;;;;3.93;3.54;;;;;;;-5.67;74.34;103083.16;463199;112;930569;-68
2022/03/18 00:23:49;;;;;;;3.40;3.01;;;;;;;-5.68;73.91;103091.21;462498;112;923066;-68
2022/03/18 00:24:53;;;;;;;4.01;3.61;;;;;;;-5.72;73.77;103085.10;459564;112;922497;-67
2022/03/18 00:25:56;;;;;;;4.63;3.76;;;;;;;-5.75;73.84;103085.22;458915;112;930548;-67
2022/03/18 00:27:00;;;;;;;4.73;3.20;;;;;;;-5.77;73.82;103087.05;461738;112;922597;-66
2022/03/18 00:28:04;;;;;;;5.69;3.72;;;;;;;-5.80;73.93;103081.84;463759;112;930562;-66
2022/03/18 00:29:07;;;;;;;3.91;3.52;;;;;;;-5.81;73.91;103082.75;463017;112;922486;-65
2022/03/18 00:30:16;;;;;;;3.50;3.20;;;;;;;-5.83;73.68;103081.05;462946;112;922587;-67
2022/03/18 00:31:19;;;;;;;3.87;3.35;;;;;;;-5.86;73.76;103076.72;455379;112;922704;-68
2022/03/18 00:32:24;;;;;;;3.99;3.55;;;;;;;-5.86;73.78;103078.50;450935;116;922507;-69
2022/03/18 00:33:27;;;;;;;3.45;3.05;;;;;;;-5.88;73.76;103075.05;452173;116;923041;-68
2022/03/18 00:34:30;;;;;;;3.33;2.94;;;;;;;-5.89;73.80;103079.48;451426;116;922668;-70
2022/03/18 00:35:34;;;;;;;3.66;3.21;;;;;;;-5.91;73.63;103076.03;453792;116;930571;-66
2022/03/18 00:36:38;;;;;;;4.06;3.36;;;;;;;-5.94;73.40;103070.80;452438;116;922671;-68
2022/03/18 00:37:41;;;;;;;3.98;3.18;;;;;;;-5.97;73.30;103074.44;454171;116;930556;-69
2022/03/18 00:38:44;;;;;;;5.04;3.42;;;;;;;-6.00;73.37;103081.61;450168;116;922581;-68
2022/03/18 00:39:47;;;;;;;3.47;3.11;;;;;;;-6.02;73.53;103079.02;452249;116;922539;-67
2022/03/18 00:40:51;;;;;;;4.14;3.28;;;;;;;-6.04;73.21;103086.16;451133;116;922965;-66
2022/03/18 00:41:54;;;;;;;5.36;2.93;;;;;;;-6.07;73.20;103082.74;451382;116;923842;-68
2022/03/18 00:42:57;;;;;;;5.01;4.18;;;;;;;-6.09;73.37;103084.56;453475;116;922939;-67
2022/03/18 00:44:01;;;;;;;4.35;3.55;;;;;;;-6.11;73.32;103076.63;451669;116;930448;-67
2022/03/18 00:45:05;;;;;;;3.94;3.51;;;;;;;-6.12;73.32;103082.86;453348;116;923008;-68
2022/03/18 00:46:09;;;;;;;4.66;3.33;;;;;;;-6.14;73.29;103075.87;451962;116;922580;-67
2022/03/18 00:52:40;;;;;;;7.46;3.62;;;;;;;-6.12;73.82;103085.52;450858;116;923180;-68
2022/03/18 00:53:43;;;;;;;3.92;3.59;;;;;;;-6.08;73.89;103084.52;452004;116;922499;-69
2022/03/18 00:54:46;;;;;;;4.04;3.39;;;;;;;-6.07;74.00;103086.27;451708;116;930641;-68
2022/03/18 00:55:50;;;;;;;3.87;3.24;;;;;;;-6.05;73.92;103089.72;452234;116;922981;-68
2022/03/18 00:56:53;;;;;;;4.06;3.68;;;;;;;-6.02;73.85;103089.65;449795;116;930467;-67
2022/03/18 00:57:56;;;;;;;4.92;3.40;;;;;;;-6.00;73.64;103092.23;453804;116;930661;-67
2022/03/18 00:59:00;;;;;;;4.87;3.72;;;;;;;-6.00;73.64;103092.23;452469;116;930708;-68
2022/03/18 01:00:05;;;;;;;5.17;3.98;;;;;;;-6.00;73.71;103087.80;452674;116;923164;-67
2022/03/18 01:01:08;;;;;;;4.49;3.25;;;;;;;-5.96;73.82;103096.56;452144;116;925451;-68
2022/03/18 01:02:12;;;;;;;3.65;3.32;;;;;;;-5.92;73.82;103092.88;451882;116;922524;-67
2022/03/18 01:03:15;;;;;;;5.27;4.13;;;;;;;-5.88;73.83;103094.52;449637;116;930535;-68
2022/03/18 01:04:20;;;;;;;4.69;3.98;;;;;;;-5.84;73.88;103096.11;452922;116;922711;-67
2022/03/18 01:05:23;;;;;;;5.24;3.84;;;;;;;-5.79;73.76;103093.34;450654;116;930541;-68
2022/03/18 01:06:26;;;;;;;4.33;3.86;;;;;;;-5.77;73.58;103095.02;452816;116;923351;-68
2022/03/18 01:07:30;;;;;;;4.92;3.67;;;;;;;-5.77;73.54;103095.02;453381;116;926432;-68
2022/03/18 01:08:33;;;;;;;5.56;3.74;;;;;;;-5.76;73.28;103096.76;451561;116;922607;-69
2022/03/18 01:09:37;;;;;;;4.16;3.66;;;;;;;-5.76;73.13;103096.76;451884;116;930584;-68
2022/03/18 01:10:40;;;;;;;3.75;3.37;;;;;;;-5.78;73.15;103098.58;453925;116;930530;-67
2022/03/18 01:11:44;;;;;;;3.74;3.39;;;;;;;-5.78;72.73;103093.27;454366;116;930503;-67
2022/03/18 01:12:47;;;;;;;3.39;2.92;;;;;;;-5.80;72.63;103094.25;448959;116;922602;-67
2022/03/18 01:13:51;;;;;;;4.63;3.81;;;;;;;-5.85;72.38;103094.41;449989;116;930620;-67
2022/03/18 01:14:54;;;;;;;3.87;3.09;;;;;;;-5.90;72.34;103099.87;451491;116;922596;-67
2022/03/18 01:15:57;;;;;;;4.01;3.19;;;;;;;-5.92;72.41;103096.41;453394;116;922595;-68
2022/03/18 01:17:01;;;;;;;4.51;3.52;;;;;;;-5.94;72.17;103089.39;453458;116;930621;-67
2022/03/18 01:18:05;;;;;;;4.72;3.66;;;;;;;-5.98;72.08;103093.06;452998;116;923077;-67
2022/03/18 01:19:08;;;;;;;4.26;3.60;;;;;;;-6.03;71.92;103093.22;451339;116;930526;-67
2022/03/18 01:20:13;;;;;;;3.99;3.15;;;;;;;-6.05;72.03;103096.82;453829;116;922881;-68
2022/03/18 01:21:17;;;;;;;3.72;3.36;;;;;;;-6.08;72.03;103103.11;452991;116;923270;-68
2022/03/18 01:22:20;;;;;;;4.69;3.40;;;;;;;-6.09;71.98;103097.84;452574;116;922739;-68
2022/03/18 01:23:23;;;;;;;8.36;3.94;;;;;;;-6.11;72.09;103097.87;453259;116;930466;-68
2022/03/18 01:24:27;;;;;;;5.12;3.49;;;;;;;-6.13;71.83;103097.08;451339;116;922564;-67
2022/03/18 01:25:30;;;;;;;6.00;3.44;;;;;;;-6.15;71.82;103103.33;453405;116;930563;-69
2022/03/18 01:26:34;;;;;;;3.84;3.14;;;;;;;-6.17;71.95;103107.80;453355;116;922834;-68
2022/03/18 01:27:37;;;;;;;3.77;3.39;;;;;;;-6.18;71.99;103101.66;453853;116;930862;-67
2022/03/18 01:28:40;;;;;;;3.91;3.53;;;;;;;-6.18;71.90;103099.00;452930;116;930488;-67
2022/03/18 01:29:44;;;;;;;5.26;3.84;;;;;;;-6.20;71.90;103097.30;453053;116;922657;-67
2022/03/18 01:30:48;;;;;;;5.72;3.49;;;;;;;-6.21;71.92;103100.86;454378;116;923173;-69
2022/03/18 01:31:51;;;;;;;4.46;3.52;;;;;;;-6.22;71.58;103101.77;459818;113;930543;-68
2022/03/18 01:32:55;;;;;;;5.42;3.78;;;;;;;-6.25;71.65;103107.19;464032;113;922549;-67
2022/03/18 01:33:58;;;;;;;4.49;3.45;;;;;;;-6.29;71.65;103098.45;466408;113;922952;-67
2022/03/18 01:35:02;;;;;;;3.61;3.21;;;;;;;-6.29;71.55;103097.58;461457;113;930468;-68
2022/03/18 01:36:06;;;;;;;3.40;3.05;;;;;;;-6.32;71.73;103101.17;467096;113;930517;-69
2022/03/18 01:37:09;;;;;;;4.15;3.58;;;;;;;-6.30;71.86;103102.02;464116;113;931019;-68
2022/03/18 01:38:12;;;;;;;4.98;4.24;;;;;;;-6.29;71.91;103097.58;466426;113;922973;-68
2022/03/18 01:39:16;;;;;;;4.17;3.28;;;;;;;-6.27;71.95;103104.56;465907;113;922501;-68
2022/03/18 01:40:20;;;;;;;4.46;3.15;;;;;;;-6.23;72.07;103103.58;465044;113;922849;-66
2022/03/18 01:41:24;;;;;;;4.81;3.21;;;;;;;-6.20;72.17;103103.48;463891;113;922533;-67
2022/03/18 01:42:28;;;;;;;4.28;3.61;;;;;;;-6.16;72.04;103107.77;464447;112;931060;-67
2022/03/18 01:43:39;;;;;;;4.46;3.27;;;;;;;-6.13;72.00;103101.52;465635;113;930532;-68
2022/03/18 01:44:44;;;;;;;3.90;2.99;;;;;;;-6.11;72.04;103110.28;464987;113;922921;-68
2022/03/18 01:45:49;;;;;;;4.12;3.45;;;;;;;-6.08;72.10;103107.55;466257;113;922595;-67
2022/03/18 01:46:52;;;;;;;4.00;3.60;;;;;;;-6.05;72.19;103102.13;463168;113;930467;-68
2022/03/18 01:47:56;;;;;;;3.99;3.54;;;;;;;-6.03;72.04;103111.80;466186;113;922902;-68
2022/03/18 01:48:59;;;;;;;4.04;3.41;;;;;;;-6.02;71.82;103113.55;465761;113;930491;-68
2022/03/18 01:50:03;;;;;;;4.47;3.72;;;;;;;-6.00;71.80;103110.83;464822;113;922536;-68
2022/03/18 01:51:07;;;;;;;3.91;3.39;;;;;;;-6.00;71.70;103102.86;464906;113;923090;-69
2022/03/18 01:52:11;;;;;;;3.69;3.33;;;;;;;-6.01;71.53;103114.42;463847;113;930510;-67
2022/03/18 01:53:16;;;;;;;4.55;3.05;;;;;;;-6.01;71.61;103112.61;462618;113;922562;-69
2022/03/18 01:55:41;;;;;;;3.93;3.08;;;;;;;-6.00;71.50;103111.70;462724;113;922582;-68
2022/03/18 01:56:45;;;;;;;3.92;3.31;;;;;;;-5.98;71.46;103109.00;462204;113;922980;-66
2022/03/18 01:57:48;;;;;;;2.99;2.67;;;;;;;-5.98;71.18;103106.34;463845;113;930597;-64
2022/03/18 01:58:52;;;;;;;3.36;3.06;;;;;;;-5.99;71.14;103112.57;463985;113;930555;-67
2022/03/18 01:59:55;;;;;;;3.56;3.12;;;;;;;-6.02;70.63;103118.86;465966;113;924548;-66
2022/03/18 02:00:59;;;;;;;4.15;2.95;;;;;;;-6.06;70.43;103113.66;467348;112;922932;-67
2022/03/18 02:02:03;;;;;;;3.69;3.01;;;;;;;-6.12;70.27;103112.06;461792;113;922539;-67
2022/03/18 02:03:07;;;;;;;7.54;3.45;;;;;;;-6.16;70.25;103120.17;463662;113;931009;-66
2022/03/18 02:04:10;;;;;;;3.84;2.94;;;;;;;-6.19;70.14;103114.97;463902;113;922671;-67
2022/03/18 02:05:14;;;;;;;3.31;2.79;;;;;;;-6.23;69.97;103122.16;463381;113;922669;-66
2022/03/18 02:06:19;;;;;;;4.20;3.81;;;;;;;-6.27;70.12;103115.19;466900;113;923788;-68
2022/03/18 02:07:22;;;;;;;3.45;3.02;;;;;;;-6.30;69.89;103119.73;462853;112;922919;-69
2022/03/18 02:08:26;;;;;;;4.33;3.39;;;;;;;-6.33;70.23;103116.23;463759;113;923152;-68
2022/03/18 02:09:31;;;;;;;3.26;2.81;;;;;;;-6.33;70.41;103115.36;462206;113;922915;-68
2022/03/18 02:10:35;;;;;;;4.58;3.27;;;;;;;-6.32;70.57;103111.80;464542;113;922598;-68
2022/03/18 02:11:39;;;;;;;3.74;2.96;;;;;;;-6.31;70.51;103116.20;462773;113;922510;-68
2022/03/18 02:12:43;;;;;;;4.27;3.11;;;;;;;-6.28;70.54;103116.09;461961;113;922859;-69
2022/03/18 02:13:51;;;;;;;3.75;3.15;;;;;;;-6.26;70.53;103116.92;459869;113;922556;-67
2022/03/18 02:14:54;;;;;;;4.82;3.49;;;;;;;-6.23;70.43;103121.30;463653;113;930525;-68
2022/03/18 02:16:01;;;;;;;3.49;3.05;;;;;;;-6.22;70.45;103125.66;463602;113;922686;-66
2022/03/18 02:17:06;;;;;;;4.01;3.07;;;;;;;-6.21;70.52;103128.28;464333;113;922572;-68
2022/03/18 02:18:10;;;;;;;3.37;3.00;;;;;;;-6.19;70.16;103126.46;463261;113;922676;-68
2022/03/18 02:19:13;;;;;;;3.12;2.84;;;;;;;-6.20;70.10;103126.50;464013;113;922561;-67
2022/03/18 02:20:17;;;;;;;4.62;3.54;;;;;;;-6.19;70.15;103120.28;464079;113;922714;-67
2022/03/18 02:21:21;;;;;;;4.17;3.18;;;;;;;-6.18;70.25;103127.33;463594;113;922705;-68
2022/03/18 02:22:26;;;;;;;3.95;2.77;;;;;;;-6.17;70.29;103124.61;464118;112;922655;-67
2022/03/18 02:23:29;;;;;;;4.17;3.54;;;;;;;-6.15;70.32;103127.23;461843;113;922781;-68
2022/03/18 02:24:32;;;;;;;4.44;3.77;;;;;;;-6.11;70.34;103120.91;463807;113;922710;-66
2022/03/18 02:25:35;;;;;;;3.96;3.41;;;;;;;-6.10;70.33;103120.87;467733;113;922624;-67
2022/03/18 02:26:39;;;;;;;7.09;3.82;;;;;;;-6.08;70.23;103123.48;462626;112;922550;-67
2022/03/18 02:27:52;;;;;;;5.44;3.33;;;;;;;-6.07;70.11;103120.79;464295;113;922748;-68
2022/03/18 02:28:58;;;;;;;4.63;3.03;;;;;;;-6.06;69.94;103127.81;462216;113;922856;-68
2022/03/18 02:30:01;;;;;;;3.73;3.29;;;;;;;-6.06;69.98;103125.16;463664;113;922639;-68
2022/03/18 02:31:04;;;;;;;3.74;3.32;;;;;;;-6.06;69.88;103130.47;462261;112;922714;-65
2022/03/18 02:32:09;;;;;;;3.70;2.83;;;;;;;-6.05;69.81;103136.66;464171;112;922657;-67
2022/03/18 02:33:12;;;;;;;4.48;3.22;;;;;;;-6.05;69.78;103124.25;461122;112;930525;-67
2022/03/18 02:34:16;;;;;;;3.86;3.42;;;;;;;-6.05;69.76;103132.22;463693;112;922651;-67
2022/03/18 02:35:19;;;;;;;7.39;3.36;;;;;;;-6.05;69.69;103137.53;464988;112;923002;-68
2022/03/18 02:36:22;;;;;;;4.12;3.12;;;;;;;-6.04;69.57;103138.40;460083;112;922501;-67
2022/03/18 02:37:26;;;;;;;4.56;3.54;;;;;;;-6.06;69.39;103138.44;456859;112;930564;-69
2022/03/18 02:38:29;;;;;;;7.05;3.37;;;;;;;-6.08;69.26;103137.63;462977;112;922654;-67
2022/03/18 02:39:33;;;;;;;3.72;3.13;;;;;;;-6.09;69.32;103142.98;462089;112;922556;-67
2022/03/18 02:40:36;;;;;;;4.03;3.54;;;;;;;-6.11;69.23;103143.02;461485;112;922552;-68
2022/03/18 02:41:40;;;;;;;6.30;3.68;;;;;;;-6.11;69.24;103142.14;468971;112;930567;-69
2022/03/18 02:42:44;;;;;;;3.33;2.86;;;;;;;-6.11;69.31;103143.02;467023;112;930683;-67
2022/03/18 02:43:47;;;;;;;3.51;3.08;;;;;;;-6.10;69.30;103144.77;468457;112;930535;-69
2022/03/18 02:44:50;;;;;;;3.59;3.04;;;;;;;-6.09;69.07;103146.52;459236;112;922704;-68
2022/03/18 02:45:54;;;;;;;5.03;3.61;;;;;;;-6.09;68.98;103142.98;464163;112;922926;-67
2022/03/18 02:47:00;;;;;;;5.66;3.49;;;;;;;-6.10;69.00;103143.89;465540;112;930543;-67
2022/03/18 02:48:04;;;;;;;4.26;3.39;;;;;;;-6.10;68.92;103146.55;468239;112;930595;-66
2022/03/18 02:49:08;;;;;;;4.45;3.38;;;;;;;-6.11;68.80;103147.45;462702;112;922521;-68
2022/03/18 02:50:12;;;;;;;3.76;2.92;;;;;;;-6.12;68.99;103151.05;467142;112;922513;-69
2022/03/18 02:51:15;;;;;;;3.43;2.98;;;;;;;-6.12;68.91;103157.20;458897;112;922990;-70
2022/03/18 02:52:19;;;;;;;4.78;3.45;;;;;;;-6.14;68.70;103152.88;461362;112;930882;-67
2022/03/18 02:53:22;;;;;;;3.98;3.52;;;;;;;-6.15;68.56;103154.66;462694;112;930654;-66
2022/03/18 02:54:26;;;;;;;4.22;3.79;;;;;;;-6.17;68.60;103152.95;466141;112;922487;-69
2022/03/18 02:55:29;;;;;;;4.01;3.52;;;;;;;-6.17;68.57;103153.81;464417;112;922931;-69
2022/03/18 02:56:33;;;;;;;4.34;3.35;;;;;;;-6.18;68.56;103162.73;467641;112;922604;-69
2022/03/18 02:57:37;;;;;;;4.39;3.62;;;;;;;-6.18;68.71;103159.20;464028;112;922537;-68
2022/03/18 02:58:41;;;;;;;3.86;3.34;;;;;;;-6.16;68.77;103157.34;469516;112;923007;-67
2022/03/18 02:59:44;;;;;;;4.89;3.42;;;;;;;-6.14;68.64;103163.50;463399;112;930582;-69
2022/03/18 03:00:47;;;;;;;4.30;3.46;;;;;;;-6.12;68.51;103161.67;461594;112;922502;-70
2022/03/18 03:01:51;;;;;;;5.83;3.44;;;;;;;-6.14;68.46;103163.50;465232;112;930426;-68
2022/03/18 03:02:55;;;;;;;4.06;3.37;;;;;;;-6.14;68.57;103169.67;468190;112;922599;-67
2022/03/18 03:03:59;;;;;;;4.31;3.70;;;;;;;-6.12;68.47;103166.98;458079;112;922569;-69
2022/03/18 03:07:59;;;;;;;4.97;4.33;;;;;;;-6.10;68.33;103165.14;463113;112;923045;-67
2022/03/18 03:09:02;;;;;;;4.45;4.00;;;;;;;-6.12;68.14;103173.14;460474;112;923356;-68
2022/03/18 03:10:07;;;;;;;6.64;4.01;;;;;;;-6.13;68.05;103175.86;464734;112;922644;-69
2022/03/18 03:11:10;;;;;;;4.32;3.86;;;;;;;-6.15;67.97;103170.59;464837;112;922681;-68
2022/03/18 03:12:14;;;;;;;5.21;4.37;;;;;;;-6.16;67.94;103179.46;459388;112;922655;-67
2022/03/18 03:13:17;;;;;;;6.08;5.03;;;;;;;-6.16;67.96;103175.94;464650;112;923342;-66
2022/03/18 03:14:20;;;;;;;5.64;4.76;;;;;;;-6.16;67.97;103175.94;468661;112;930548;-68
2022/03/18 03:15:24;;;;;;;5.97;5.36;;;;;;;-6.18;67.90;103173.34;462893;112;922583;-67
2022/03/18 03:16:27;;;;;;;5.78;5.17;;;;;;;-6.18;67.90;103175.13;464860;112;922484;-70
2022/03/18 03:17:31;;;;;;;7.98;4.66;;;;;;;-6.17;67.92;103174.19;460388;112;930775;-68
2022/03/18 03:18:35;;;;;;;5.16;4.68;;;;;;;-6.16;67.98;103173.27;467360;112;930566;-68
2022/03/18 03:19:38;;;;;;;4.44;3.96;;;;;;;-6.15;67.55;103182.98;463991;112;930503;-69
2022/03/18 03:20:42;;;;;;;5.54;4.90;;;;;;;-6.16;67.38;103181.24;465476;112;922635;-67
2022/03/18 03:21:45;;;;;;;6.44;4.89;;;;;;;-6.19;67.31;103181.34;461560;112;922783;-67
2022/03/18 03:22:49;;;;;;;5.48;4.80;;;;;;;-6.21;67.19;103172.55;461393;112;922614;-68
2022/03/18 03:23:52;;;;;;;7.16;5.39;;;;;;;-6.22;67.13;103176.11;467145;112;922629;-68
2022/03/18 03:24:56;;;;;;;9.42;4.75;;;;;;;-6.24;67.15;103177.95;463036;112;922624;-68
2022/03/18 03:26:00;;;;;;;4.98;4.54;;;;;;;-6.25;67.16;103176.20;458907;112;922562;-68
2022/03/18 03:27:04;;;;;;;4.96;4.03;;;;;;;-6.24;67.27;103180.61;466631;112;922519;-68
2022/03/18 03:28:07;;;;;;;4.97;3.81;;;;;;;-6.23;67.20;103179.70;458540;112;922513;-69
2022/03/18 03:29:10;;;;;;;4.88;4.12;;;;;;;-6.22;67.22;103190.25;455544;112;930500;-68
2022/03/18 03:30:14;;;;;;;3.96;3.24;;;;;;;-6.23;66.86;103179.70;464454;112;922647;-67
2022/03/18 03:31:19;;;;;;;4.29;3.81;;;;;;;-6.25;66.81;103187.70;462299;112;922965;-69
2022/03/18 03:32:22;;;;;;;4.41;3.88;;;;;;;-6.27;66.81;103185.98;462968;112;922954;-68
2022/03/18 03:33:26;;;;;;;4.28;3.85;;;;;;;-6.27;66.83;103185.98;467312;112;922572;-67
2022/03/18 03:34:29;;;;;;;4.45;3.51;;;;;;;-6.28;66.86;103189.58;460318;112;922913;-67
2022/03/18 03:35:33;;;;;;;4.10;3.69;;;;;;;-6.26;66.84;103187.73;464380;112;922504;-70
2022/03/18 03:36:36;;;;;;;4.66;3.81;;;;;;;-6.25;66.89;103189.48;455856;112;922907;-67
2022/03/18 03:37:39;;;;;;;3.92;3.49;;;;;;;-6.23;66.95;103193.84;460442;112;923078;-67
2022/03/18 03:38:43;;;;;;;5.22;3.56;;;;;;;-6.21;66.88;103199.97;464139;112;922923;-68
2022/03/18 03:39:46;;;;;;;4.89;3.71;;;;;;;-6.19;66.93;103197.27;457457;112;922930;-67
2022/03/18 03:40:50;;;;;;;3.94;3.62;;;;;;;-6.18;66.67;103193.71;456681;112;922729;-68
2022/03/18 03:41:53;;;;;;;4.07;3.36;;;;;;;-6.19;66.30;103198.15;459693;112;930481;-68
2022/03/18 03:42:56;;;;;;;4.35;3.51;;;;;;;-6.24;66.15;103200.06;456944;112;930642;-69
2022/03/18 03:44:00;;;;;;;4.29;3.56;;;;;;;-6.26;66.19;103198.36;459249;112;923366;-68
2022/03/18 03:45:03;;;;;;;4.53;3.51;;;;;;;-6.28;66.13;103208.17;463348;112;922542;-67
2022/03/18 03:46:07;;;;;;;4.53;3.76;;;;;;;-6.31;66.03;103203.80;464749;112;922651;-69
2022/03/18 03:47:10;;;;;;;4.42;3.45;;;;;;;-6.33;66.02;103206.48;463049;112;922559;-67
2022/03/18 03:48:14;;;;;;;4.46;3.91;;;;;;;-6.34;66.12;103209.20;459631;112;923316;-68
2022/03/18 03:49:17;;;;;;;4.36;3.29;;;;;;;-6.35;66.16;103210.98;462199;112;922546;-67
2022/03/18 03:50:21;;;;;;;4.78;3.94;;;;;;;-6.34;66.22;103204.73;460399;112;922922;-66
2022/03/18 03:51:24;;;;;;;3.94;3.33;;;;;;;-6.33;66.16;103210.92;463023;112;930490;-67
2022/03/18 03:52:27;;;;;;;4.16;3.70;;;;;;;-6.34;66.11;103212.70;462078;112;922632;-68
2022/03/18 03:53:31;;;;;;;3.74;3.31;;;;;;;-6.33;66.19;103206.48;465017;112;924868;-68
2022/03/18 03:54:35;;;;;;;4.98;3.48;;;;;;;-6.29;66.37;103207.30;460431;112;922556;-68
2022/03/18 03:55:40;;;;;;;4.52;3.56;;;;;;;-6.27;66.40;103216.06;465946;112;930614;-70
2022/03/18 03:56:43;;;;;;;4.88;3.84;;;;;;;-6.22;66.39;103207.97;465599;112;930480;-67
2022/03/18 03:57:47;;;;;;;3.35;3.03;;;;;;;-6.19;66.42;103213.20;462434;112;923079;-67
2022/03/18 03:58:50;;;;;;;3.90;3.50;;;;;;;-6.16;66.34;103215.76;462818;112;923000;-68
2022/03/18 03:59:53;;;;;;;4.17;3.77;;;;;;;-6.14;66.27;103214.82;464114;112;930537;-67
2022/03/18 04:00:57;;;;;;;3.89;3.38;;;;;;;-6.12;66.19;103218.28;463099;112;922975;-70
2022/03/18 04:02:02;;;;;;;4.58;4.04;;;;;;;-6.10;66.13;103218.25;464002;112;930521;-67
2022/03/18 04:03:06;;;;;;;4.71;3.21;;;;;;;-6.10;66.08;103221.77;466158;112;930586;-68
2022/03/18 04:04:09;;;;;;;3.87;3.46;;;;;;;-6.08;65.89;103227.05;463658;112;922551;-67
2022/03/18 04:05:13;;;;;;;4.42;3.86;;;;;;;-6.09;65.83;103226.17;455157;112;922579;-68
2022/03/18 04:06:17;;;;;;;4.00;3.61;;;;;;;-6.08;65.74;103224.39;463767;112;922582;-70
2022/03/18 04:07:20;;;;;;;4.69;3.62;;;;;;;-6.08;65.82;103225.27;461955;112;922572;-69
2022/03/18 04:08:23;;;;;;;3.98;3.59;;;;;;;-6.07;65.70;103218.17;467452;112;923014;-71
2022/03/18 04:09:27;;;;;;;4.86;3.77;;;;;;;-6.05;65.64;103226.95;463742;112;930438;-66
2022/03/18 04:10:30;;;;;;;3.91;3.50;;;;;;;-6.05;65.55;103224.30;465872;112;922668;-68
2022/03/18 04:11:34;;;;;;;4.53;3.34;;;;;;;-6.02;65.54;103218.91;460926;112;930600;-67
2022/03/18 04:12:37;;;;;;;5.87;4.52;;;;;;;-5.99;65.63;103226.78;459007;112;922591;-69
2022/03/18 04:13:41;;;;;;;4.16;3.77;;;;;;;-5.98;65.45;103223.21;467933;112;931070;-67
2022/03/18 04:14:44;;;;;;;6.10;4.33;;;;;;;-5.96;65.36;103226.70;467044;112;931007;-66
2022/03/18 04:15:48;;;;;;;4.67;3.87;;;;;;;-5.95;65.32;103225.77;462893;112;922479;-69
2022/03/18 04:16:51;;;;;;;5.21;4.29;;;;;;;-5.95;65.20;103229.30;463179;112;922886;-66
2022/03/18 04:17:55;;;;;;;4.68;4.21;;;;;;;-5.92;65.13;103236.32;461797;112;922551;-67
2022/03/18 04:18:58;;;;;;;7.94;4.28;;;;;;;-5.91;65.16;103240.72;456639;112;922812;-67
2022/03/18 04:20:02;;;;;;;4.62;3.84;;;;;;;-5.90;65.13;103237.16;460630;112;923837;-68
2022/03/18 04:21:05;;;;;;;5.85;5.17;;;;;;;-5.88;65.05;103237.09;464021;112;930585;-68
2022/03/18 04:22:09;;;;;;;5.21;4.57;;;;;;;-5.87;64.88;103241.49;465899;112;930649;-67
2022/03/18 04:23:12;;;;;;;4.20;3.80;;;;;;;-5.86;64.76;103248.52;466371;112;930578;-68
2022/03/18 04:24:16;;;;;;;5.78;4.53;;;;;;;-5.91;64.50;103248.69;466205;112;930528;-68
2022/03/18 04:25:22;;;;;;;4.66;4.08;;;;;;;-5.91;64.50;103248.69;466310;112;930506;-68
2022/03/18 04:26:26;;;;;;;5.92;4.47;;;;;;;-5.94;64.52;103243.45;466398;112;922653;-66
2022/03/18 04:27:29;;;;;;;5.29;4.40;;;;;;;-5.95;64.48;103241.70;463289;112;922891;-68
2022/03/18 04:28:33;;;;;;;4.94;4.47;;;;;;;-5.94;64.48;103246.11;465430;112;922592;-66
2022/03/18 04:29:36;;;;;;;5.18;4.29;;;;;;;-5.95;64.44;103247.89;452719;114;930562;-68
2022/03/18 04:30:40;;;;;;;6.14;4.63;;;;;;;-5.94;64.40;103240.80;455652;112;922691;-67
2022/03/18 04:31:43;;;;;;;5.37;4.03;;;;;;;-5.94;64.47;103248.77;457394;112;930568;-67
2022/03/18 04:32:47;;;;;;;4.83;4.24;;;;;;;-5.94;64.44;103251.42;466383;112;930556;-67
2022/03/18 04:33:50;;;;;;;5.83;5.14;;;;;;;-5.94;64.36;103248.77;467330;112;930499;-69
2022/03/18 04:34:53;;;;;;;5.46;4.96;;;;;;;-5.92;64.40;103254.91;460523;112;922788;-68
2022/03/18 04:35:57;;;;;;;5.62;4.39;;;;;;;-5.91;64.41;103256.66;469265;112;930541;-67
2022/03/18 04:37:00;;;;;;;4.78;4.28;;;;;;;-5.90;64.39;103255.75;463488;112;922513;-67
2022/03/18 04:38:04;;;;;;;7.18;4.76;;;;;;;-5.89;64.42;103254.81;462352;112;930569;-68
2022/03/18 04:39:07;;;;;;;5.17;4.08;;;;;;;-5.89;64.27;103257.47;459903;112;922406;-68
2022/03/18 04:40:13;;;;;;;5.41;4.43;;;;;;;-5.88;64.21;103259.22;465555;112;922627;-68
2022/03/18 04:41:17;;;;;;;6.16;4.65;;;;;;;-5.87;64.29;103258.30;467994;112;922852;-69
2022/03/18 04:42:20;;;;;;;4.96;4.31;;;;;;;-5.86;64.27;103256.48;460671;112;922402;-67
2022/03/18 04:43:24;;;;;;;5.67;4.84;;;;;;;-5.85;64.12;103263.55;461861;112;922579;-67
2022/03/18 04:44:27;;;;;;;6.59;5.66;;;;;;;-5.86;64.14;103260.02;462349;112;930552;-68
2022/03/18 04:45:31;;;;;;;6.92;5.64;;;;;;;-5.86;64.06;103253.83;466506;112;922547;-68
2022/03/18 04:46:34;;;;;;;5.66;5.08;;;;;;;-5.86;64.21;103260.02;462079;112;930483;-68
2022/03/18 04:47:38;;;;;;;6.72;5.32;;;;;;;-5.85;64.23;103259.11;466144;112;930960;-68
2022/03/18 04:48:41;;;;;;;5.61;4.66;;;;;;;-5.82;64.15;103261.66;462440;112;930572;-68
2022/03/18 04:49:44;;;;;;;5.26;4.79;;;;;;;-5.81;64.09;103258.09;464857;112;922663;-69
2022/03/18 04:50:48;;;;;;;6.37;4.90;;;;;;;-5.79;64.04;103261.59;456021;112;923306;-69
2022/03/18 04:51:51;;;;;;;5.78;5.08;;;;;;;-5.78;63.92;103262.44;460867;112;930596;-70
2022/03/18 04:52:56;;;;;;;5.16;4.51;;;;;;;-5.77;63.87;103266.84;463522;112;930566;-69
2022/03/18 04:53:59;;;;;;;5.69;5.05;;;;;;;-5.77;63.54;103258.87;464485;112;922646;-66
2022/03/18 04:55:04;;;;;;;6.48;4.80;;;;;;;-5.80;63.47;103258.97;466462;112;930523;-71
2022/03/18 04:57:15;;;;;;;5.01;4.19;;;;;;;-5.82;63.48;103268.77;466939;112;923100;-69
2022/03/18 04:57:15;;;;;;;4.48;4.02;;;;;;;-5.85;63.50;103260.89;465891;112;922573;-68
2022/03/18 04:58:19;;;;;;;4.91;3.94;;;;;;;-5.86;63.46;103275.09;467468;112;922835;-67
2022/03/18 04:59:22;;;;;;;5.21;3.63;;;;;;;-5.87;63.45;103257.44;457894;112;923033;-68
2022/03/18 05:00:26;;;;;;;5.47;3.72;;;;;;;-5.87;63.47;103268.06;467200;112;922542;-67
2022/03/18 05:01:31;;;;;;;4.24;3.40;;;;;;;-5.86;63.50;103264.45;460803;112;930582;-69
2022/03/18 05:02:36;;;;;;;4.38;3.74;;;;;;;-5.86;63.45;103259.14;467772;112;922494;-67